King Sugar — 3FIP2 — position and weather

sailwx.info

Track history (hours):
 
Tides and Currents Weather Stations Pressure Air Temp Water Temp Dewpoint Dewpoint Depression Visibility Wind Speed Wind Dir Waves Ship Positions

King Sugar

Last reported at 2017-Nov-07 18:33 UTC. Time now 2017-Nov-20 23:02 UTC.
Position S 29°41' E 031°57'.
Warning: this ship's position is 13 days out of date.

Length 169 m; draft 8.4 m.

Type: Cargo ship. MMSI: 355883000.

Date/timePositionNaut miles runAvg speedWind from/ knotsBaromVisibWave heightAir tempDewpointWater temp
2017-Nov-07 18:33S 29°41' E 031°57'110.7
2017-Nov-07 18:30S 29°41' E 031°56'510.8
2017-Nov-07 18:00S 29°42' E 031°50'510.5
2017-Nov-07 17:30S 29°43' E 031°44'611.0
2017-Nov-07 17:00S 29°44' E 031°38'713.3
2017-Nov-07 16:30S 29°45' E 031°31'713.4
2017-Nov-07 16:00S 29°46' E 031°23'713.6
2017-Nov-07 15:30S 29°48' E 031°15'612.6
2017-Nov-07 15:00S 29°49' E 031°08'5 9.1
2017-Nov-07 14:30S 29°52' E 031°04'1 2.0
2017-Nov-07 14:00S 29°52' E 031°03'0 0.0
2017-Nov-07 13:30S 29°52' E 031°03'0 0.0
2017-Nov-07 13:00S 29°52' E 031°03'0 0.0
2017-Nov-07 12:30S 29°52' E 031°03'0 0.0
2017-Nov-07 12:00S 29°52' E 031°03'0 0.0
2017-Nov-07 11:24S 29°52' E 031°03'0 0.0
2017-Nov-07 11:00S 29°52' E 031°03'0 0.0
2017-Nov-07 10:30S 29°52' E 031°03'0 0.0
2017-Nov-07 10:00S 29°52' E 031°03'0 0.0
2017-Nov-07 09:30S 29°52' E 031°03'0 0.0
2017-Nov-07 09:00S 29°52' E 031°03'0 0.0
2017-Nov-07 08:30S 29°52' E 031°03'0 0.0
2017-Nov-07 08:00S 29°52' E 031°03'0 0.0
2017-Nov-07 07:30S 29°52' E 031°03'0 0.0
2017-Nov-07 07:00S 29°52' E 031°03'0 0.0
2017-Nov-07 06:18S 29°52' E 031°03'0 0.0
2017-Nov-07 06:00S 29°52' E 031°03'0 0.0
2017-Nov-07 05:30S 29°52' E 031°03'0 0.0
2017-Nov-07 05:00S 29°52' E 031°03'0 0.0
2017-Nov-07 04:30S 29°52' E 031°03'0 0.0
2017-Nov-07 04:00S 29°52' E 031°03'0 0.0
2017-Nov-07 03:30S 29°52' E 031°03'0 0.0
2017-Nov-07 03:00S 29°52' E 031°03'0 0.0
2017-Nov-07 02:30S 29°52' E 031°03'0 0.0
2017-Nov-07 02:00S 29°52' E 031°03'0 0.0
2017-Nov-07 01:30S 29°52' E 031°03'0 0.0
2017-Nov-07 01:00S 29°52' E 031°03'0 0.2
2017-Nov-07 00:31S 29°53' E 031°03'2 4.5
2017-Nov-07 00:01S 29°51' E 031°05'3 6.6
2017-Nov-06 23:30S 29°49' E 031°08'1 2.0
2017-Nov-06 23:01S 29°48' E 031°09'1 2.6
2017-Nov-06 22:31S 29°49' E 031°08'1 2.8
2017-Nov-06 22:00S 29°50' E 031°06'1 2.5
2017-Nov-06 21:31S 29°49' E 031°08'510.7
2017-Nov-06 21:01S 29°49' E 031°14'5 9.3
2017-Nov-06 20:31S 29°47' E 031°19'5 0.3
2017-Nov-06 02:30S 29°46' E 031°25'1 1.3
2017-Nov-06 02:00S 29°46' E 031°24'1 1.3
2017-Nov-06 01:30S 29°47' E 031°24'1 1.4
2017-Nov-06 01:00S 29°47' E 031°24'1 1.3
2017-Nov-06 00:30S 29°48' E 031°23'1 1.2
2017-Nov-06 00:00S 29°49' E 031°23'1 1.0
2017-Nov-05 23:27S 29°49' E 031°23'0 1.0
2017-Nov-05 23:00S 29°50' E 031°23'0 0.8
2017-Nov-05 22:30S 29°50' E 031°23'0 0.7
2017-Nov-05 22:00S 29°50' E 031°23'0 0.6
2017-Nov-05 21:30S 29°51' E 031°23'0 0.5
2017-Nov-05 21:00S 29°51' E 031°23'0 0.5
2017-Nov-05 20:30S 29°51' E 031°23'0 0.4
2017-Nov-05 20:00S 29°51' E 031°23'0 0.4
2017-Nov-05 19:30S 29°51' E 031°23'0 0.4
2017-Nov-05 19:00S 29°51' E 031°22'0 0.4
2017-Nov-05 18:30S 29°51' E 031°22'0 0.6
2017-Nov-05 18:00S 29°51' E 031°22'1 1.1
2017-Nov-05 17:31S 29°51' E 031°21'2 4.8
2017-Nov-05 17:00S 29°54' E 031°21'1 2.3
2017-Nov-05 16:28S 29°54' E 031°19'1 2.7
2017-Nov-05 16:00S 29°54' E 031°18'2 4.3
2017-Nov-05 15:30S 29°54' E 031°15'2 4.5
2017-Nov-05 15:00S 29°55' E 031°13'511.0
2017-Nov-05 14:30S 30°00' E 031°14'612.7
2017-Nov-05 14:00S 30°06' E 031°11'713.4
2017-Nov-05 13:30S 30°12' E 031°07'713.1
2017-Nov-05 13:00S 30°17' E 031°03'612.3
2017-Nov-05 12:30S 30°22' E 030°59'510.9
2017-Nov-05 12:00S 30°27' E 030°55'510.5
2017-Nov-05 11:30S 30°31' E 030°52'610.7
2017-Nov-05 10:59S 30°36' E 030°49'  
Track history (hours):
 
Tides and Currents Weather Stations Pressure Air Temp Water Temp Dewpoint Dewpoint Depression Visibility Wind Speed Wind Dir Waves Ship Positions

King Sugar

Last reported at 2017-Nov-07 18:33 UTC. Time now 2017-Nov-20 23:02 UTC.
Position S 29°41' E 031°57'.
Warning: this ship's position is 13 days out of date.

Length 169 m; draft 8.4 m.

Type: Cargo ship. MMSI: 355883000.

Date/timePositionNaut miles runAvg speedWind from/ knotsBaromVisibWave heightAir tempDewpointWater temp
2017-Nov-07 18:33S 29°41' E 031°57'110.7
2017-Nov-07 18:30S 29°41' E 031°56'510.8
2017-Nov-07 18:00S 29°42' E 031°50'510.5
2017-Nov-07 17:30S 29°43' E 031°44'611.0
2017-Nov-07 17:00S 29°44' E 031°38'713.3
2017-Nov-07 16:30S 29°45' E 031°31'713.4
2017-Nov-07 16:00S 29°46' E 031°23'713.6
2017-Nov-07 15:30S 29°48' E 031°15'612.6
2017-Nov-07 15:00S 29°49' E 031°08'5 9.1
2017-Nov-07 14:30S 29°52' E 031°04'1 2.0
2017-Nov-07 14:00S 29°52' E 031°03'0 0.0
2017-Nov-07 13:30S 29°52' E 031°03'0 0.0
2017-Nov-07 13:00S 29°52' E 031°03'0 0.0
2017-Nov-07 12:30S 29°52' E 031°03'0 0.0
2017-Nov-07 12:00S 29°52' E 031°03'0 0.0
2017-Nov-07 11:24S 29°52' E 031°03'0 0.0
2017-Nov-07 11:00S 29°52' E 031°03'0 0.0
2017-Nov-07 10:30S 29°52' E 031°03'0 0.0
2017-Nov-07 10:00S 29°52' E 031°03'0 0.0
2017-Nov-07 09:30S 29°52' E 031°03'0 0.0
2017-Nov-07 09:00S 29°52' E 031°03'0 0.0
2017-Nov-07 08:30S 29°52' E 031°03'0 0.0
2017-Nov-07 08:00S 29°52' E 031°03'0 0.0
2017-Nov-07 07:30S 29°52' E 031°03'0 0.0
2017-Nov-07 07:00S 29°52' E 031°03'0 0.0
2017-Nov-07 06:18S 29°52' E 031°03'0 0.0
2017-Nov-07 06:00S 29°52' E 031°03'0 0.0
2017-Nov-07 05:30S 29°52' E 031°03'0 0.0
2017-Nov-07 05:00S 29°52' E 031°03'0 0.0
2017-Nov-07 04:30S 29°52' E 031°03'0 0.0
2017-Nov-07 04:00S 29°52' E 031°03'0 0.0
2017-Nov-07 03:30S 29°52' E 031°03'0 0.0
2017-Nov-07 03:00S 29°52' E 031°03'0 0.0
2017-Nov-07 02:30S 29°52' E 031°03'0 0.0
2017-Nov-07 02:00S 29°52' E 031°03'0 0.0
2017-Nov-07 01:30S 29°52' E 031°03'0 0.0
2017-Nov-07 01:00S 29°52' E 031°03'0 0.2
2017-Nov-07 00:31S 29°53' E 031°03'2 4.5
2017-Nov-07 00:01S 29°51' E 031°05'3 6.6
2017-Nov-06 23:30S 29°49' E 031°08'1 2.0
2017-Nov-06 23:01S 29°48' E 031°09'1 2.6
2017-Nov-06 22:31S 29°49' E 031°08'1 2.8
2017-Nov-06 22:00S 29°50' E 031°06'1 2.5
2017-Nov-06 21:31S 29°49' E 031°08'510.7
2017-Nov-06 21:01S 29°49' E 031°14'5 9.3
2017-Nov-06 20:31S 29°47' E 031°19'5 0.3
2017-Nov-06 02:30S 29°46' E 031°25'1 1.3
2017-Nov-06 02:00S 29°46' E 031°24'1 1.3
2017-Nov-06 01:30S 29°47' E 031°24'1 1.4
2017-Nov-06 01:00S 29°47' E 031°24'1 1.3
2017-Nov-06 00:30S 29°48' E 031°23'1 1.2
2017-Nov-06 00:00S 29°49' E 031°23'1 1.0
2017-Nov-05 23:27S 29°49' E 031°23'0 1.0
2017-Nov-05 23:00S 29°50' E 031°23'0 0.8
2017-Nov-05 22:30S 29°50' E 031°23'0 0.7
2017-Nov-05 22:00S 29°50' E 031°23'0 0.6
2017-Nov-05 21:30S 29°51' E 031°23'0 0.5
2017-Nov-05 21:00S 29°51' E 031°23'0 0.5
2017-Nov-05 20:30S 29°51' E 031°23'0 0.4
2017-Nov-05 20:00S 29°51' E 031°23'0 0.4
2017-Nov-05 19:30S 29°51' E 031°23'0 0.4
2017-Nov-05 19:00S 29°51' E 031°22'0 0.4
2017-Nov-05 18:30S 29°51' E 031°22'0 0.6
2017-Nov-05 18:00S 29°51' E 031°22'1 1.1
2017-Nov-05 17:31S 29°51' E 031°21'2 4.8
2017-Nov-05 17:00S 29°54' E 031°21'1 2.3
2017-Nov-05 16:28S 29°54' E 031°19'1 2.7
2017-Nov-05 16:00S 29°54' E 031°18'2 4.3
2017-Nov-05 15:30S 29°54' E 031°15'2 4.5
2017-Nov-05 15:00S 29°55' E 031°13'511.0
2017-Nov-05 14:30S 30°00' E 031°14'612.7
2017-Nov-05 14:00S 30°06' E 031°11'713.4
2017-Nov-05 13:30S 30°12' E 031°07'713.1
2017-Nov-05 13:00S 30°17' E 031°03'612.3
2017-Nov-05 12:30S 30°22' E 030°59'510.9
2017-Nov-05 12:00S 30°27' E 030°55'510.5
2017-Nov-05 11:30S 30°31' E 030°52'610.7
2017-Nov-05 10:59S 30°36' E 030°49'  

Dump ship's entire track history